createdAt,value
2022-11-05T00:00:54.147Z,8.50
2022-11-05T00:03:58.281Z,8.13
2022-11-05T00:07:04.098Z,9.30
2022-11-05T00:09:51.724Z,10.50
2022-11-05T00:12:55.840Z,9.13
2022-11-05T00:15:59.747Z,7.93
2022-11-05T00:19:06.181Z,8.40
2022-11-05T00:22:11.416Z,8.07
2022-11-05T00:25:16.727Z,8.27
2022-11-05T00:28:04.540Z,7.90
2022-11-05T00:30:51.149Z,7.90
2022-11-05T00:33:37.591Z,7.30
2022-11-05T00:36:23.813Z,8.57
2022-11-05T00:39:12.178Z,7.53
2022-11-05T00:42:12.789Z,8.43
2022-11-05T00:45:02.200Z,7.97
2022-11-05T00:48:06.656Z,8.33
2022-11-05T00:50:53.403Z,7.20
2022-11-05T00:53:39.602Z,17.57
2022-11-05T00:56:27.519Z,9.97
2022-11-05T00:59:13.906Z,11.50
2022-11-05T01:02:00.736Z,8.20
2022-11-05T01:04:47.048Z,8.57
2022-11-05T01:07:33.583Z,7.10
2022-11-05T01:10:20.201Z,7.80
2022-11-05T01:13:12.659Z,8.10
2022-11-05T01:16:05.173Z,7.23
2022-11-05T01:18:51.663Z,7.93
2022-11-05T01:21:38.087Z,7.80
2022-11-05T01:24:24.404Z,7.47
2022-11-05T01:27:10.528Z,7.53
2022-11-05T01:29:58.364Z,6.90
2022-11-05T01:32:44.751Z,6.50
2022-11-05T01:35:31.263Z,6.47
2022-11-05T01:38:17.583Z,6.47
2022-11-05T01:41:04.206Z,6.27
2022-11-05T01:43:52.830Z,6.20
2022-11-05T01:46:45.261Z,6.37
2022-11-05T01:49:35.055Z,6.43
2022-11-05T01:52:22.623Z,5.53
2022-11-05T01:55:11.134Z,5.47
2022-11-05T01:57:59.970Z,6.00
2022-11-05T02:00:46.641Z,5.00
2022-11-05T02:03:35.300Z,5.40
2022-11-05T02:06:22.347Z,4.40
2022-11-05T02:09:12.256Z,4.53
2022-11-05T02:11:59.587Z,5.47
2022-11-05T02:14:45.869Z,5.43
2022-11-05T02:17:42.090Z,4.73
2022-11-05T02:20:42.380Z,5.23
2022-11-05T02:23:54.460Z,5.90
2022-11-05T02:27:05.184Z,5.70
2022-11-05T02:30:08.219Z,5.50
2022-11-05T02:33:21.623Z,5.47
2022-11-05T02:36:24.786Z,5.37
2022-11-05T02:39:23.344Z,5.37
2022-11-05T02:42:16.755Z,5.97
2022-11-05T02:45:11.624Z,6.10
2022-11-05T02:48:06.737Z,5.70
2022-11-05T02:51:00.007Z,5.47
2022-11-05T02:53:51.751Z,5.20
2022-11-05T02:56:41.157Z,5.50
2022-11-05T02:59:27.751Z,5.43
2022-11-05T03:02:14.435Z,5.83
2022-11-05T03:05:03.683Z,5.93
2022-11-05T03:07:56.020Z,5.30
2022-11-05T03:10:47.058Z,5.30
2022-11-05T03:13:46.407Z,9.10
2022-11-05T03:16:40.401Z,6.80
2022-11-05T03:19:36.959Z,5.30
2022-11-05T03:22:26.403Z,5.87
2022-11-05T03:25:16.815Z,5.63
2022-11-05T03:28:08.342Z,5.60
2022-11-05T03:30:58.633Z,5.97
2022-11-05T03:33:46.485Z,6.00
2022-11-05T03:36:37.780Z,5.50
2022-11-05T03:39:30.235Z,5.47
2022-11-05T03:42:19.450Z,4.50
2022-11-05T03:45:11.431Z,5.20
2022-11-05T03:48:01.086Z,4.70
2022-11-05T03:50:54.772Z,8.70
2022-11-05T03:53:45.819Z,11.77
2022-11-05T03:56:38.519Z,7.53
2022-11-05T03:59:25.585Z,5.03
2022-11-05T04:02:14.640Z,5.10
2022-11-05T04:05:01.465Z,4.43
2022-11-05T04:08:08.705Z,5.00
2022-11-05T04:11:15.099Z,4.70
2022-11-05T04:14:02.877Z,5.20
2022-11-05T04:17:09.032Z,4.93
2022-11-05T04:20:13.018Z,4.90
2022-11-05T04:23:18.036Z,5.47
2022-11-05T04:26:04.498Z,4.80
2022-11-05T04:29:10.308Z,4.73
2022-11-05T04:31:58.394Z,4.53
2022-11-05T04:34:44.709Z,4.97
2022-11-05T04:37:30.819Z,5.13
2022-11-05T04:40:17.248Z,4.93
2022-11-05T04:43:04.610Z,4.93
2022-11-05T04:45:50.723Z,4.97
2022-11-05T04:48:39.033Z,5.00
2022-11-05T04:51:27.106Z,4.77
2022-11-05T04:54:13.576Z,4.70
2022-11-05T04:57:00.150Z,5.00
2022-11-05T04:59:49.083Z,4.17
2022-11-05T05:02:36.206Z,5.23
2022-11-05T05:05:24.011Z,4.93
2022-11-05T05:08:10.389Z,4.30
2022-11-05T05:10:57.018Z,4.77
2022-11-05T05:13:43.881Z,5.80
2022-11-05T05:16:30.486Z,6.10
2022-11-05T05:19:17.031Z,5.80
2022-11-05T05:22:03.655Z,6.10
2022-11-05T05:24:52.815Z,6.50
2022-11-05T05:27:39.415Z,6.70
2022-11-05T05:30:25.923Z,6.47
2022-11-05T05:33:12.585Z,6.40
2022-11-05T05:36:00.092Z,6.60
2022-11-05T05:38:47.622Z,7.20
2022-11-05T05:41:33.998Z,6.47
2022-11-05T05:44:20.791Z,6.90
2022-11-05T05:47:07.371Z,7.10
2022-11-05T05:49:53.899Z,6.77
2022-11-05T05:52:40.202Z,7.30
2022-11-05T05:55:28.108Z,6.50
2022-11-05T05:58:14.563Z,6.33
2022-11-05T06:01:02.175Z,6.67
2022-11-05T06:03:49.036Z,7.03
2022-11-05T06:06:35.111Z,6.80
2022-11-05T06:09:21.528Z,7.03
2022-11-05T06:12:09.307Z,7.17
2022-11-05T06:14:55.781Z,7.30
2022-11-05T06:17:44.330Z,7.07
2022-11-05T06:20:30.768Z,7.00
2022-11-05T06:23:17.035Z,7.10
2022-11-05T06:26:04.212Z,10.87
2022-11-05T06:28:51.895Z,16.93
2022-11-05T06:31:38.503Z,18.97
2022-11-05T06:34:25.092Z,11.20
2022-11-05T06:37:11.591Z,9.23
2022-11-05T06:39:58.020Z,12.00
2022-11-05T06:42:44.316Z,10.40
2022-11-05T06:45:31.789Z,16.00
2022-11-05T06:48:18.235Z,14.43
2022-11-05T06:51:05.299Z,10.53
2022-11-05T06:53:51.659Z,12.00
2022-11-05T06:56:38.077Z,9.53
2022-11-05T06:59:24.666Z,12.63
2022-11-05T07:02:13.861Z,14.60
2022-11-05T07:05:00.444Z,11.40
2022-11-05T07:07:47.207Z,9.20
2022-11-05T07:10:33.838Z,8.77
2022-11-05T07:13:20.435Z,8.30
2022-11-05T07:16:07.393Z,9.27
2022-11-05T07:18:55.861Z,9.57
2022-11-05T07:21:42.460Z,9.97
2022-11-05T07:24:28.702Z,9.70
2022-11-05T07:27:15.455Z,9.20
2022-11-05T07:30:01.886Z,8.40
2022-11-05T07:32:48.523Z,8.70
2022-11-05T07:35:36.936Z,8.70
2022-11-05T07:38:23.216Z,8.47
2022-11-05T07:41:09.515Z,8.83
2022-11-05T07:43:55.999Z,9.07
2022-11-05T07:46:42.604Z,9.10
2022-11-05T07:49:28.958Z,8.93
2022-11-05T07:52:16.445Z,8.43
2022-11-05T07:55:02.734Z,8.23
2022-11-05T07:57:50.289Z,9.03
2022-11-05T08:00:36.873Z,8.30
2022-11-05T08:03:23.882Z,8.77
2022-11-05T08:06:10.659Z,8.53
2022-11-05T08:08:58.460Z,8.40
2022-11-05T08:11:44.824Z,8.50
2022-11-05T08:14:31.214Z,8.90
2022-11-05T08:17:18.623Z,7.97
2022-11-05T08:20:05.678Z,8.00
2022-11-05T08:22:51.984Z,7.67
2022-11-05T08:25:40.381Z,7.70
2022-11-05T08:28:27.634Z,7.28
2022-11-05T08:31:15.885Z,6.35
2022-11-05T08:34:02.834Z,6.20
2022-11-05T08:36:49.454Z,6.40
2022-11-05T08:39:35.746Z,5.13
2022-11-05T08:42:23.499Z,6.18
2022-11-05T08:45:10.852Z,4.70
2022-11-05T08:48:00.426Z,5.35
2022-11-05T08:50:49.494Z,5.32
2022-11-05T08:53:35.874Z,5.13
2022-11-05T08:56:23.182Z,5.05
2022-11-05T08:59:10.700Z,4.57
2022-11-05T09:01:57.389Z,4.78
2022-11-05T09:04:44.060Z,4.18
2022-11-05T09:07:30.577Z,4.22
2022-11-05T09:10:17.126Z,4.57
2022-11-05T09:13:04.211Z,4.93
2022-11-05T09:15:52.627Z,4.28
2022-11-05T09:18:39.180Z,3.65
2022-11-05T09:21:25.577Z,4.15
2022-11-05T09:24:12.159Z,4.60
2022-11-05T09:26:58.390Z,3.90
2022-11-05T09:29:45.026Z,3.88
2022-11-05T09:32:33.496Z,4.45
2022-11-05T09:35:19.900Z,4.30
2022-11-05T09:38:06.524Z,3.78
2022-11-05T09:41:00.127Z,3.90
2022-11-05T09:43:51.675Z,3.90
2022-11-05T09:46:43.115Z,3.72
2022-11-05T09:49:35.084Z,3.45
2022-11-05T09:52:24.511Z,4.38
2022-11-05T09:55:21.677Z,3.65
2022-11-05T09:58:18.053Z,3.70
2022-11-05T10:01:07.844Z,4.40
2022-11-05T10:03:57.643Z,3.70
2022-11-05T10:06:48.788Z,5.43
2022-11-05T10:09:40.135Z,3.97
2022-11-05T10:12:32.683Z,3.25
2022-11-05T10:15:23.248Z,5.95
2022-11-05T10:18:15.843Z,5.60
2022-11-05T10:21:02.982Z,4.95
2022-11-05T10:23:50.653Z,5.10
2022-11-05T10:26:37.440Z,4.57
2022-11-05T10:29:29.172Z,3.85
2022-11-05T10:32:22.580Z,3.47
2022-11-05T10:35:18.325Z,5.05
2022-11-05T10:38:04.585Z,5.15
2022-11-05T10:41:00.022Z,4.35
2022-11-05T10:43:50.492Z,3.78
2022-11-05T10:46:43.246Z,3.85
2022-11-05T10:49:43.360Z,3.38
2022-11-05T10:52:34.173Z,3.70
2022-11-05T10:55:24.955Z,3.78
2022-11-05T10:58:21.446Z,3.00
2022-11-05T11:01:11.407Z,3.55
2022-11-05T11:04:16.143Z,3.75
2022-11-05T11:07:03.587Z,3.30
2022-11-05T11:09:51.626Z,3.13
2022-11-05T11:12:43.474Z,3.05
2022-11-05T11:15:34.967Z,2.90
2022-11-05T11:18:29.133Z,3.40
2022-11-05T11:21:19.524Z,3.80
2022-11-05T11:24:07.470Z,3.88
2022-11-05T11:26:54.092Z,2.60
2022-11-05T11:29:46.566Z,2.80
2022-11-05T11:32:40.239Z,3.40
2022-11-05T11:35:27.063Z,2.50
2022-11-05T11:38:17.066Z,2.88
2022-11-05T11:41:16.074Z,3.00
2022-11-05T11:44:07.620Z,2.65
2022-11-05T11:46:57.222Z,3.63
2022-11-05T11:49:47.806Z,2.53
2022-11-05T11:52:35.866Z,2.78
2022-11-05T11:55:23.576Z,2.33
2022-11-05T11:58:12.510Z,2.78
2022-11-05T12:01:08.295Z,2.78
2022-11-05T12:04:02.675Z,2.70
2022-11-05T12:07:02.014Z,3.28
2022-11-05T12:10:01.102Z,3.53
2022-11-05T12:13:02.699Z,3.30
2022-11-05T12:15:52.646Z,5.97
2022-11-05T12:18:46.172Z,2.75
2022-11-05T12:21:53.777Z,2.92
2022-11-05T12:24:58.735Z,2.85
2022-11-05T12:27:56.475Z,2.90
2022-11-05T12:30:52.126Z,2.60
2022-11-05T12:33:49.039Z,3.28
2022-11-05T12:36:49.370Z,2.42
2022-11-05T12:39:54.091Z,3.35
2022-11-05T12:42:52.721Z,3.60
2022-11-05T12:45:47.767Z,3.85
2022-11-05T12:48:58.895Z,3.67
2022-11-05T12:52:00.624Z,3.08
2022-11-05T12:55:01.021Z,4.00
2022-11-05T12:57:50.159Z,3.92
2022-11-05T13:00:38.645Z,3.40
2022-11-05T13:03:31.899Z,3.43
2022-11-05T13:06:22.749Z,4.15
2022-11-05T13:09:13.916Z,2.97
2022-11-05T13:12:05.924Z,3.45
2022-11-05T13:14:57.294Z,3.03
2022-11-05T13:17:52.047Z,2.97
2022-11-05T13:20:43.063Z,2.60
2022-11-05T13:23:33.403Z,2.67
2022-11-05T13:26:25.473Z,2.80
2022-11-05T13:29:18.918Z,2.60
2022-11-05T13:32:14.719Z,2.90
2022-11-05T13:35:04.203Z,2.80
2022-11-05T13:38:13.710Z,2.83
2022-11-05T13:41:13.501Z,5.63
2022-11-05T13:44:24.395Z,4.60
2022-11-05T13:47:32.728Z,3.30
2022-11-05T13:51:00.762Z,6.13
2022-11-05T13:54:07.953Z,3.53
2022-11-05T13:57:11.831Z,2.87
2022-11-05T14:00:12.344Z,2.53
2022-11-05T14:03:05.218Z,2.70
2022-11-05T14:05:56.528Z,3.20
2022-11-05T14:08:46.317Z,3.00
2022-11-05T14:11:35.718Z,2.33
2022-11-05T14:14:24.296Z,2.43
2022-11-05T14:17:27.339Z,2.30
2022-11-05T14:20:58.107Z,2.73
2022-11-05T14:23:52.024Z,2.27
2022-11-05T14:26:38.357Z,2.37
2022-11-05T14:29:25.648Z,2.20
2022-11-05T14:32:42.230Z,2.33
2022-11-05T14:35:38.454Z,2.00
2022-11-05T14:38:27.152Z,6.40
2022-11-05T14:41:13.782Z,6.60
2022-11-05T14:44:02.576Z,3.97
2022-11-05T14:46:51.616Z,3.50
2022-11-05T14:49:46.517Z,2.53
2022-11-05T14:52:34.749Z,2.77
2022-11-05T14:55:40.250Z,2.60
2022-11-05T14:58:36.318Z,2.57
2022-11-05T15:01:55.178Z,2.27
2022-11-05T15:04:45.328Z,2.70
2022-11-05T15:07:38.694Z,2.23
2022-11-05T15:10:30.882Z,2.60
2022-11-05T15:13:31.058Z,2.63
2022-11-05T15:16:23.611Z,2.33
2022-11-05T15:19:18.700Z,2.67
2022-11-05T15:22:11.315Z,2.70
2022-11-05T15:24:59.883Z,2.53
2022-11-05T15:27:58.373Z,3.10
2022-11-05T15:30:58.023Z,3.70
2022-11-05T15:33:46.704Z,7.87
2022-11-05T15:36:33.367Z,3.90
2022-11-05T15:39:30.143Z,2.50
2022-11-05T15:42:22.098Z,2.83
2022-11-05T15:45:21.172Z,3.27
2022-11-05T15:48:15.572Z,2.97
2022-11-05T15:51:02.488Z,3.40
2022-11-05T15:54:28.506Z,3.43
2022-11-05T15:57:15.879Z,4.30
2022-11-05T16:00:06.630Z,3.77
2022-11-05T16:02:55.916Z,3.90
2022-11-05T16:05:44.880Z,4.30
2022-11-05T16:08:31.882Z,3.57
2022-11-05T16:11:23.203Z,3.60
2022-11-05T16:14:18.114Z,3.50
2022-11-05T16:17:19.948Z,4.57
2022-11-05T16:20:20.852Z,4.03
2022-11-05T16:23:23.201Z,3.40
2022-11-05T16:27:00.797Z,4.17
2022-11-05T16:29:37.712Z,3.90
2022-11-05T16:32:30.829Z,4.30
2022-11-05T16:35:21.064Z,3.63
2022-11-05T16:38:07.333Z,3.93
2022-11-05T16:40:53.531Z,4.20
2022-11-05T16:43:39.859Z,4.43
2022-11-05T16:46:28.631Z,4.60
2022-11-05T16:49:17.100Z,4.60
2022-11-05T16:52:06.773Z,5.20
2022-11-05T16:54:52.987Z,5.60
2022-11-05T16:57:39.559Z,5.70
2022-11-05T17:00:26.654Z,5.60
2022-11-05T17:03:13.191Z,5.97
2022-11-05T17:06:00.935Z,5.90
2022-11-05T17:08:48.454Z,5.93
2022-11-05T17:11:34.674Z,6.70
2022-11-05T17:14:21.206Z,6.57
2022-11-05T17:17:08.058Z,6.93
2022-11-05T17:19:54.691Z,7.07
2022-11-05T17:22:42.400Z,7.40
2022-11-05T17:25:28.842Z,7.17
2022-11-05T17:28:16.432Z,6.90
2022-11-05T17:31:05.031Z,7.47
2022-11-05T17:33:51.295Z,7.87
2022-11-05T17:36:37.779Z,7.73
2022-11-05T17:39:31.400Z,8.33
2022-11-05T17:42:18.564Z,9.47
2022-11-05T17:45:05.290Z,13.93
2022-11-05T17:47:51.751Z,9.77
2022-11-05T17:50:41.965Z,9.73
2022-11-05T17:53:28.693Z,9.23
2022-11-05T17:56:28.819Z,9.30
2022-11-05T17:59:19.826Z,9.13
2022-11-05T18:02:06.263Z,9.90
2022-11-05T18:04:52.767Z,9.57
2022-11-05T18:07:39.133Z,8.97
2022-11-05T18:10:26.064Z,9.00
2022-11-05T18:13:13.940Z,9.47
2022-11-05T18:16:00.562Z,10.47
2022-11-05T18:18:48.046Z,8.80
2022-11-05T18:21:34.891Z,9.87
2022-11-05T18:24:21.534Z,10.37
2022-11-05T18:27:07.991Z,9.90
2022-11-05T18:29:56.025Z,16.43
2022-11-05T18:32:42.517Z,28.40
2022-11-05T18:35:28.935Z,21.07
2022-11-05T18:38:15.557Z,17.20
2022-11-05T18:41:06.925Z,15.50
2022-11-05T18:43:53.777Z,15.37
2022-11-05T18:46:57.615Z,15.60
2022-11-05T18:49:44.741Z,15.33
2022-11-05T18:52:32.028Z,16.23
2022-11-05T18:55:18.695Z,13.97
2022-11-05T18:58:05.255Z,15.97
2022-11-05T19:00:51.914Z,17.37
2022-11-05T19:03:39.568Z,21.60
2022-11-05T19:06:26.551Z,21.57
2022-11-05T19:09:12.936Z,19.10
2022-11-05T19:11:59.357Z,16.77
2022-11-05T19:14:45.850Z,16.73
2022-11-05T19:17:34.131Z,15.90
2022-11-05T19:20:22.162Z,15.63
2022-11-05T19:23:08.679Z,18.17
2022-11-05T19:25:55.029Z,21.17
2022-11-05T19:28:42.381Z,21.40
2022-11-05T19:31:29.206Z,24.03
2022-11-05T19:34:15.616Z,22.40
2022-11-05T19:37:07.060Z,23.17
2022-11-05T19:39:53.306Z,21.10
2022-11-05T19:42:39.321Z,22.07
2022-11-05T19:48:32.564Z,20.37
2022-11-05T19:51:20.948Z,18.67
2022-11-05T19:54:08.939Z,16.83
2022-11-05T19:56:55.527Z,15.00
2022-11-05T19:59:41.814Z,14.60
2022-11-05T20:02:28.566Z,12.93
2022-11-05T20:05:15.603Z,11.90
2022-11-05T20:08:01.865Z,11.93
2022-11-05T20:10:54.585Z,12.20
2022-11-05T20:13:40.859Z,10.87
2022-11-05T20:16:29.054Z,10.00
2022-11-05T20:19:17.769Z,10.43
2022-11-05T20:22:03.998Z,9.70
2022-11-05T20:24:50.527Z,9.33
2022-11-05T20:27:38.782Z,9.97
2022-11-05T20:30:25.304Z,11.77
2022-11-05T20:33:11.971Z,10.57
2022-11-05T20:36:03.217Z,8.17
2022-11-05T20:38:50.663Z,8.00
2022-11-05T20:41:37.297Z,8.60
2022-11-05T20:44:25.130Z,7.70
2022-11-05T20:47:11.507Z,7.17
2022-11-05T20:49:58.376Z,7.70
2022-11-05T20:52:44.629Z,7.50
2022-11-05T20:55:31.015Z,7.63
2022-11-05T20:58:17.989Z,7.80
2022-11-05T21:01:07.664Z,7.17
2022-11-05T21:03:54.256Z,7.83
2022-11-05T21:06:40.878Z,7.23
2022-11-05T21:09:27.739Z,7.90
2022-11-05T21:12:14.330Z,8.10
2022-11-05T21:15:00.615Z,8.03
2022-11-05T21:17:48.249Z,8.23
2022-11-05T21:20:34.675Z,7.90
2022-11-05T21:23:21.130Z,7.73
2022-11-05T21:26:09.850Z,7.03
2022-11-05T21:28:56.011Z,6.87
2022-11-05T21:31:42.511Z,7.63
2022-11-05T21:34:30.463Z,7.83
2022-11-05T21:37:16.738Z,8.03
2022-11-05T21:40:03.278Z,6.97
2022-11-05T21:42:49.992Z,7.43
2022-11-05T21:45:38.383Z,6.97
2022-11-05T21:48:24.936Z,8.37
2022-11-05T21:51:30.459Z,8.97
2022-11-05T21:54:34.332Z,7.07
2022-11-05T21:57:38.234Z,6.50
2022-11-05T22:00:24.965Z,6.43
2022-11-05T22:03:11.445Z,6.37
2022-11-05T22:05:58.399Z,18.63
2022-11-05T22:08:46.262Z,10.23
2022-11-05T22:11:36.356Z,6.03
2022-11-05T22:14:23.256Z,7.13
2022-11-05T22:17:10.694Z,6.07
2022-11-05T22:19:57.534Z,5.53
2022-11-05T22:22:44.139Z,6.10
2022-11-05T22:25:32.119Z,5.53
2022-11-05T22:28:18.552Z,5.43
2022-11-05T22:31:04.911Z,5.83
2022-11-05T22:33:51.520Z,6.07
2022-11-05T22:36:37.839Z,5.30
2022-11-05T22:39:24.264Z,5.43
2022-11-05T22:42:11.897Z,6.50
2022-11-05T22:44:58.880Z,5.50
2022-11-05T22:47:45.239Z,6.63
2022-11-05T22:50:32.427Z,6.17
2022-11-05T22:53:18.574Z,6.43
2022-11-05T22:56:06.191Z,8.33
2022-11-05T22:58:54.274Z,6.43
2022-11-05T23:01:41.038Z,6.37
2022-11-05T23:04:27.767Z,5.87
2022-11-05T23:07:31.548Z,13.80
2022-11-05T23:10:35.382Z,19.13
2022-11-05T23:13:21.941Z,7.33
2022-11-05T23:16:27.324Z,6.43
2022-11-05T23:19:31.810Z,6.50
2022-11-05T23:22:37.751Z,5.57
2022-11-05T23:25:25.187Z,5.70
2022-11-05T23:28:12.749Z,6.33
2022-11-05T23:31:16.541Z,5.60
2022-11-05T23:34:04.427Z,5.90
2022-11-05T23:37:08.265Z,5.97
2022-11-05T23:39:54.882Z,5.83
2022-11-05T23:42:58.446Z,6.70
2022-11-05T23:46:03.184Z,8.07
2022-11-05T23:48:49.967Z,8.23
2022-11-05T23:51:37.642Z,10.50
2022-11-05T23:54:24.215Z,12.27
2022-11-05T23:57:10.486Z,16.87
2022-11-05T23:59:56.717Z,14.10
